Time;durP1;ratioP1;P1;durP2;ratioP2;P2;SDS_P1;SDS_P2;PMS_P1;PMS_P2;Temp;Humidity;BMP_temperature;BMP_pressure;BME280_temperature;BME280_humidity;BME280_pressure;Samples;Min_cycle;Max_cycle;Signal;HPM_P1;HPM_P2
2023/09/24 00:00:20;;;;;;;3.88;2.63;;;;;;;21.30;53.38;102338.13;4991993;28;20744;-34
2023/09/24 00:02:48;;;;;;;4.43;2.38;;;;;;;21.29;53.40;102342.69;4987268;28;20051;-34
2023/09/24 00:05:16;;;;;;;3.72;2.22;;;;;;;21.28;53.64;102348.22;4992686;28;20097;-34
2023/09/24 00:07:43;;;;;;;3.40;2.13;;;;;;;21.28;53.59;102342.81;4991745;28;20057;-34
2023/09/24 00:10:10;;;;;;;2.88;2.03;;;;;;;21.25;53.45;102343.94;4987264;28;20114;-34
2023/09/24 00:12:38;;;;;;;3.85;1.95;;;;;;;21.25;53.24;102346.63;4989092;28;20157;-34
2023/09/24 00:15:07;;;;;;;3.17;2.28;;;;;;;21.25;53.17;102351.19;4990938;28;20145;-34
2023/09/24 00:17:34;;;;;;;3.53;2.63;;;;;;;21.23;53.66;102350.47;4991373;28;20627;-34
2023/09/24 00:20:00;;;;;;;4.28;2.45;;;;;;;21.24;53.22;102355.72;4991828;28;20038;-34
2023/09/24 00:22:27;;;;;;;3.22;2.22;;;;;;;21.22;53.63;102352.31;4992370;28;20046;-34
2023/09/24 00:24:54;;;;;;;3.05;2.13;;;;;;;21.20;53.09;102344.38;4992282;28;20076;-34
2023/09/24 00:27:20;;;;;;;3.45;2.25;;;;;;;21.20;53.42;102352.44;4987799;28;20057;-34
2023/09/24 00:29:47;;;;;;;3.33;2.20;;;;;;;21.19;53.33;102349.91;4987973;28;20058;-34
2023/09/24 00:32:14;;;;;;;3.15;2.28;;;;;;;21.18;53.33;102349.03;4992089;28;20625;-33
2023/09/24 00:34:41;;;;;;;4.18;2.10;;;;;;;21.18;53.28;102349.03;4995246;28;20042;-34
2023/09/24 00:37:08;;;;;;;3.42;2.35;;;;;;;21.17;53.76;102358.13;4992158;28;20054;-34
2023/09/24 00:39:36;;;;;;;4.47;2.28;;;;;;;21.17;53.22;102365.34;4989449;28;20465;-34
2023/09/24 00:42:05;;;;;;;5.32;2.25;;;;;;;21.16;53.17;102364.50;4989599;28;20441;-34
2023/09/24 00:44:32;;;;;;;3.38;2.13;;;;;;;21.16;53.18;102369.06;4990260;28;20054;-34
2023/09/24 00:46:58;;;;;;;3.75;2.35;;;;;;;21.15;53.39;102370.91;4989035;28;20050;-34
2023/09/24 00:49:27;;;;;;;3.03;1.80;;;;;;;21.14;53.67;102365.63;4984508;28;20104;-34
2023/09/24 00:51:54;;;;;;;2.63;1.77;;;;;;;21.13;53.14;102359.38;4985147;28;20038;-34
2023/09/24 00:54:21;;;;;;;3.13;2.17;;;;;;;21.14;53.65;102362.94;4991244;28;20381;-34
2023/09/24 00:56:49;;;;;;;2.42;1.70;;;;;;;21.13;53.36;102358.53;4985982;28;20053;-34
2023/09/24 00:59:16;;;;;;;2.78;2.00;;;;;;;21.12;53.11;102362.22;4993202;28;20133;-34
2023/09/24 01:01:43;;;;;;;3.53;2.10;;;;;;;21.12;53.27;102370.31;4990316;28;20149;-34
2023/09/24 01:04:11;;;;;;;4.03;2.05;;;;;;;21.11;53.59;102361.38;4988871;28;20312;-34
2023/09/24 01:06:39;;;;;;;2.70;2.22;;;;;;;21.10;53.51;102369.59;4990382;28;20057;-34
2023/09/24 01:09:08;;;;;;;4.97;2.15;;;;;;;21.11;53.17;102374.00;4989705;28;20130;-34
2023/09/24 01:11:37;;;;;;;3.42;2.00;;;;;;;21.09;53.12;102368.72;4992735;28;20093;-34
2023/09/24 01:14:05;;;;;;;2.63;1.90;;;;;;;21.09;53.14;102367.88;4988237;28;20137;-34
2023/09/24 01:16:37;;;;;;;2.88;1.98;;;;;;;21.07;53.32;102359.94;4992792;28;20084;-34
2023/09/24 01:19:07;;;;;;;3.72;1.98;;;;;;;21.07;53.56;102357.25;4986229;28;20058;-34
2023/09/24 01:21:35;;;;;;;3.53;2.22;;;;;;;21.06;53.61;102362.75;4981906;28;20047;-33
2023/09/24 01:24:03;;;;;;;3.05;1.85;;;;;;;21.06;53.17;102362.75;4988599;28;20053;-34
2023/09/24 01:26:31;;;;;;;3.03;2.20;;;;;;;21.05;53.50;102375.38;4984528;28;20446;-34
2023/09/24 01:28:58;;;;;;;3.13;1.80;;;;;;;21.05;53.25;102369.16;4992552;28;20064;-34
2023/09/24 01:31:26;;;;;;;3.22;2.08;;;;;;;21.04;53.50;102364.75;5021600;28;20043;-34
2023/09/24 01:33:53;;;;;;;2.72;1.92;;;;;;;21.03;53.61;102363.91;4992486;28;20478;-34
2023/09/24 01:36:21;;;;;;;2.95;1.75;;;;;;;21.02;53.89;102364.88;4983535;28;20053;-34
2023/09/24 01:38:48;;;;;;;3.38;1.83;;;;;;;21.02;53.20;102370.25;4985382;28;20054;-34
2023/09/24 01:41:14;;;;;;;1.95;1.60;;;;;;;21.01;53.51;102362.31;4980487;28;20073;-34
2023/09/24 01:43:45;;;;;;;3.30;2.08;;;;;;;21.00;53.67;102360.63;4978539;28;20097;-34
2023/09/24 01:46:15;;;;;;;2.25;1.70;;;;;;;20.98;53.60;102368.81;4981086;28;20418;-34
2023/09/24 01:48:47;;;;;;;3.38;1.55;;;;;;;20.98;53.68;102362.59;4984493;28;20136;-34
2023/09/24 01:51:13;;;;;;;3.20;2.05;;;;;;;20.97;53.49;102364.44;4984568;28;20382;-34
2023/09/24 01:53:42;;;;;;;2.42;1.75;;;;;;;20.97;53.84;102371.66;4987440;28;20157;-34
2023/09/24 01:56:09;;;;;;;3.70;1.55;;;;;;;20.95;53.67;102375.38;4985725;28;20054;-34
2023/09/24 01:58:37;;;;;;;4.07;2.42;;;;;;;20.96;53.39;102381.59;4989793;28;20302;-34
2023/09/24 02:01:05;;;;;;;2.63;1.85;;;;;;;20.95;53.57;102377.22;4994239;28;20050;-34
2023/09/24 02:03:31;;;;;;;3.22;1.95;;;;;;;20.92;53.87;102375.63;4992101;28;20104;-34
2023/09/24 02:05:58;;;;;;;3.72;2.05;;;;;;;20.92;53.39;102381.03;4984322;28;20046;-34
2023/09/24 02:08:25;;;;;;;3.00;1.85;;;;;;;20.92;53.54;102372.09;4986632;28;20047;-34
2023/09/24 02:10:52;;;;;;;2.92;1.70;;;;;;;20.91;53.49;102373.06;4985641;28;20521;-34
2023/09/24 02:13:20;;;;;;;2.80;1.80;;;;;;;20.89;53.66;102373.19;4984682;28;20045;-34
2023/09/24 02:15:48;;;;;;;3.10;1.70;;;;;;;20.90;53.60;102374.03;4983305;28;20053;-34
2023/09/24 02:18:15;;;;;;;3.00;1.77;;;;;;;20.89;53.78;102375.88;4985357;28;20055;-34
2023/09/24 02:20:46;;;;;;;2.78;1.92;;;;;;;20.87;53.23;102374.34;4988097;28;20109;-34
2023/09/24 02:23:13;;;;;;;2.13;1.58;;;;;;;20.86;53.26;102367.22;4987143;28;20051;-34
2023/09/24 02:25:45;;;;;;;3.08;1.90;;;;;;;20.85;53.54;102370.91;4986178;28;20060;-34
2023/09/24 02:28:12;;;;;;;2.60;2.08;;;;;;;20.85;53.56;102374.44;4983322;28;20319;-34
2023/09/24 02:30:40;;;;;;;4.03;2.10;;;;;;;20.85;53.61;102373.59;4991073;28;20125;-35
2023/09/24 02:33:07;;;;;;;3.20;1.80;;;;;;;20.85;53.32;102379.00;4991692;28;20055;-34
2023/09/24 02:35:34;;;;;;;3.90;2.13;;;;;;;20.84;53.54;102382.69;4988832;28;20050;-34
2023/09/24 02:38:01;;;;;;;3.13;1.75;;;;;;;20.82;53.49;102382.81;4992359;28;20050;-34
2023/09/24 02:40:28;;;;;;;3.72;2.55;;;;;;;20.82;53.55;102377.41;4988413;28;20077;-34
2023/09/24 02:42:59;;;;;;;2.53;1.55;;;;;;;20.81;53.30;102373.03;4984422;28;20089;-33
2023/09/24 02:45:27;;;;;;;4.78;1.73;;;;;;;20.80;53.43;102363.22;4986151;28;20128;-34
2023/09/24 02:47:54;;;;;;;2.40;1.52;;;;;;;20.79;53.92;102364.22;4984222;28;20050;-34
2023/09/24 02:50:24;;;;;;;2.00;1.48;;;;;;;20.80;53.36;102368.63;4984736;28;20047;-34
2023/09/24 02:52:55;;;;;;;2.17;1.48;;;;;;;20.78;53.59;102373.28;4988566;28;20129;-34
2023/09/24 02:55:23;;;;;;;3.40;1.88;;;;;;;20.78;53.26;102375.97;4984429;28;20287;-34
2023/09/24 02:57:53;;;;;;;2.45;1.75;;;;;;;20.78;53.48;102377.81;4985526;28;20046;-34
2023/09/24 03:00:26;;;;;;;2.72;1.50;;;;;;;20.78;53.51;102383.22;4983346;28;20056;-34
2023/09/24 03:02:56;;;;;;;1.92;1.60;;;;;;;20.77;53.64;102384.22;4985912;28;20043;-34
2023/09/24 03:05:24;;;;;;;2.55;1.40;;;;;;;20.76;53.39;102387.91;4981446;28;20061;-34
2023/09/24 03:07:52;;;;;;;1.98;1.52;;;;;;;20.76;53.41;102387.91;4991715;28;20169;-33
2023/09/24 03:10:23;;;;;;;1.88;1.45;;;;;;;20.74;53.24;102396.09;4989943;28;20627;-34
2023/09/24 03:12:50;;;;;;;2.72;1.70;;;;;;;20.73;53.69;102386.31;4986654;28;20116;-34
2023/09/24 03:15:17;;;;;;;2.95;1.80;;;;;;;20.73;53.77;102399.78;4982042;28;20053;-34
2023/09/24 03:17:47;;;;;;;4.78;1.80;;;;;;;20.72;53.32;102397.22;4983939;28;20395;-34
2023/09/24 03:20:15;;;;;;;2.47;1.50;;;;;;;20.70;53.19;102400.91;4986239;28;20192;-33
2023/09/24 03:22:50;;;;;;;2.33;1.50;;;;;;;20.69;53.70;102409.97;4981566;28;20101;-33
2023/09/24 03:25:27;;;;;;;2.35;1.50;;;;;;;20.68;53.69;102408.28;4984795;28;20054;-34
2023/09/24 03:27:58;;;;;;;2.53;1.55;;;;;;;20.68;53.81;102410.13;4984314;28;20046;-33
2023/09/24 03:30:25;;;;;;;2.30;1.50;;;;;;;20.68;53.29;102413.66;4988554;28;20046;-34
2023/09/24 03:32:53;;;;;;;2.95;1.52;;;;;;;20.67;53.44;102414.66;4984366;28;20141;-33
2023/09/24 03:35:25;;;;;;;2.60;1.50;;;;;;;20.67;53.85;102414.66;4985273;28;20043;-34
2023/09/24 03:37:53;;;;;;;2.10;1.50;;;;;;;20.67;53.71;102416.50;4985682;28;20137;-34
2023/09/24 03:40:21;;;;;;;2.65;1.63;;;;;;;20.65;53.33;102424.69;4989041;28;20050;-34
2023/09/24 03:42:48;;;;;;;2.33;1.40;;;;;;;20.65;53.43;102424.69;4989543;28;20046;-34
2023/09/24 03:45:17;;;;;;;3.58;1.70;;;;;;;20.65;53.85;102418.47;4987364;28;20050;-33
2023/09/24 03:47:48;;;;;;;2.13;1.50;;;;;;;20.64;53.55;102419.44;4981704;28;20046;-34
2023/09/24 03:50:19;;;;;;;4.13;1.77;;;;;;;20.65;53.38;102421.16;4984370;28;20049;-33
2023/09/24 03:52:48;;;;;;;2.10;1.33;;;;;;;20.62;53.18;102422.28;4982848;28;20081;-33
2023/09/24 03:55:21;;;;;;;2.78;1.60;;;;;;;20.61;53.19;102422.41;4980724;28;20045;-34
2023/09/24 03:57:48;;;;;;;2.25;1.40;;;;;;;20.60;53.21;102421.56;4982790;28;20047;-34
2023/09/24 04:00:18;;;;;;;2.35;1.55;;;;;;;20.60;53.23;102424.25;4988674;28;20089;-34
2023/09/24 04:02:47;;;;;;;3.10;1.48;;;;;;;20.59;53.63;102433.31;4985163;28;20046;-34
2023/09/24 04:05:18;;;;;;;1.83;1.25;;;;;;;20.58;53.62;102434.31;4986879;28;20051;-34
2023/09/24 04:07:52;;;;;;;2.67;1.60;;;;;;;20.58;53.37;102433.44;4982975;28;20341;-33
2023/09/24 04:10:20;;;;;;;2.83;1.63;;;;;;;20.58;53.39;102436.13;4985329;28;20050;-33
2023/09/24 04:12:50;;;;;;;3.03;1.40;;;;;;;20.57;53.77;102435.28;4983072;28;20434;-34
2023/09/24 04:15:19;;;;;;;6.57;1.50;;;;;;;20.57;53.67;102442.50;4983711;28;20108;-33
2023/09/24 04:17:46;;;;;;;2.72;1.50;;;;;;;20.56;53.68;102451.59;4981351;28;20177;-33
2023/09/24 04:20:19;;;;;;;4.25;1.85;;;;;;;20.56;53.14;102449.75;4982205;28;20153;-33
2023/09/24 04:22:47;;;;;;;3.05;1.63;;;;;;;20.53;53.18;102447.31;4984430;28;20130;-34
2023/09/24 04:25:14;;;;;;;3.75;1.27;;;;;;;20.53;53.02;102447.31;4992954;28;20054;-33
2023/09/24 04:27:44;;;;;;;1.42;1.20;;;;;;;20.52;53.75;102451.00;4983601;28;20117;-34
2023/09/24 04:30:15;;;;;;;2.30;1.30;;;;;;;20.53;53.80;102455.38;4988168;28;20049;-33
2023/09/24 04:33:03;;;;;;;2.83;1.20;;;;;;;20.52;53.13;102460.91;4987756;28;20142;-33
2023/09/24 04:35:29;;;;;;;2.75;1.20;;;;;;;20.52;53.73;102464.47;4984860;28;21201;-33
2023/09/24 04:37:56;;;;;;;2.00;1.35;;;;;;;20.51;53.36;102465.44;4982806;28;20100;-33
2023/09/24 04:40:24;;;;;;;2.17;1.33;;;;;;;20.51;53.10;102470.84;4988537;28;20078;-33
2023/09/24 04:42:51;;;;;;;1.98;1.35;;;;;;;20.50;54.01;102463.72;4988904;28;20144;-33
2023/09/24 04:45:18;;;;;;;2.45;1.25;;;;;;;20.50;53.58;102461.03;4989518;28;20061;-34
2023/09/24 04:47:46;;;;;;;2.40;1.48;;;;;;;20.50;53.63;102458.34;4986157;28;20057;-33
2023/09/24 04:50:13;;;;;;;2.65;1.40;;;;;;;20.49;53.64;102462.00;4985749;28;20049;-33
2023/09/24 04:52:42;;;;;;;1.92;1.30;;;;;;;20.48;53.96;102471.06;4979583;28;20434;-33
2023/09/24 04:55:09;;;;;;;2.33;1.30;;;;;;;20.48;53.63;102465.66;4980852;28;20074;-33
2023/09/24 04:57:36;;;;;;;1.67;1.20;;;;;;;20.48;53.71;102462.97;4978035;28;20051;-34
2023/09/24 05:00:03;;;;;;;1.65;1.15;;;;;;;20.47;53.29;102469.34;4975318;28;20053;-34
2023/09/24 05:02:30;;;;;;;1.92;1.10;;;;;;;20.47;53.81;102482.81;4981160;28;20620;-33
2023/09/24 05:04:57;;;;;;;2.55;1.38;;;;;;;20.46;53.31;102473.00;4980344;28;20145;-33
2023/09/24 05:07:23;;;;;;;2.28;1.00;;;;;;;20.46;53.66;102475.69;4979499;28;20053;-33
2023/09/24 05:09:52;;;;;;;2.17;1.35;;;;;;;20.45;53.80;102476.69;4979752;28;20493;-33
2023/09/24 05:12:19;;;;;;;1.60;1.25;;;;;;;20.45;53.52;102471.31;4977813;28;20042;-34
2023/09/24 05:14:45;;;;;;;1.90;1.30;;;;;;;20.44;53.86;102475.00;4984074;28;20055;-34
2023/09/24 05:17:12;;;;;;;1.55;1.10;;;;;;;20.44;53.43;102470.47;4984346;28;20442;-34
2023/09/24 05:19:38;;;;;;;2.15;1.23;;;;;;;20.44;53.90;102478.53;4981885;28;20053;-34
2023/09/24 05:22:07;;;;;;;2.75;1.55;;;;;;;20.43;53.46;102481.38;4982396;28;20050;-34
2023/09/24 05:24:34;;;;;;;2.85;1.58;;;;;;;20.43;53.32;102462.53;4980713;28;20062;-34
2023/09/24 05:27:01;;;;;;;2.35;1.33;;;;;;;20.42;53.56;102476.94;4978199;28;20057;-34
2023/09/24 05:29:28;;;;;;;2.47;1.58;;;;;;;20.41;53.81;102476.09;5012270;28;20046;-34
2023/09/24 05:31:55;;;;;;;2.75;1.67;;;;;;;20.42;53.71;102485.03;4977258;28;20316;-34
2023/09/24 05:34:22;;;;;;;2.83;1.52;;;;;;;20.41;53.37;102483.31;4979679;28;20548;-34
2023/09/24 05:36:51;;;;;;;2.70;1.50;;;;;;;20.38;53.88;102480.88;4981891;28;20488;-33
2023/09/24 05:39:18;;;;;;;2.85;1.92;;;;;;;20.39;53.73;102491.53;4983023;28;20128;-34
2023/09/24 05:41:45;;;;;;;3.30;1.75;;;;;;;20.38;53.84;102487.16;4984058;28;20065;-33
2023/09/24 05:44:12;;;;;;;2.75;1.67;;;;;;;20.37;53.86;102488.13;4982325;28;20054;-33
2023/09/24 05:46:39;;;;;;;3.03;1.70;;;;;;;20.37;53.64;102490.81;4983607;28;20047;-33
2023/09/24 05:49:06;;;;;;;3.47;1.48;;;;;;;20.36;53.48;102489.09;4984972;28;20043;-33
2023/09/24 05:51:32;;;;;;;3.13;1.80;;;;;;;20.36;53.21;102485.56;4980556;28;20439;-33
2023/09/24 05:53:59;;;;;;;2.92;1.50;;;;;;;20.35;53.60;102489.25;4976634;28;20051;-33
2023/09/24 05:56:26;;;;;;;3.80;1.98;;;;;;;20.35;53.81;102494.63;4981083;28;20499;-33
2023/09/24 05:58:53;;;;;;;2.92;1.50;;;;;;;20.35;53.64;102489.25;4977863;28;20086;-34
2023/09/24 06:01:19;;;;;;;3.30;1.95;;;;;;;20.35;53.80;102497.31;4981864;28;20125;-33
2023/09/24 06:03:46;;;;;;;3.30;2.08;;;;;;;20.36;53.19;102499.03;4982005;28;20129;-33
2023/09/24 06:06:13;;;;;;;2.67;1.92;;;;;;;20.35;53.78;102513.47;4977272;28;20053;-34
2023/09/24 06:08:40;;;;;;;2.78;1.95;;;;;;;20.35;53.54;102505.41;4981571;28;20047;-33
2023/09/24 06:11:08;;;;;;;3.75;2.65;;;;;;;20.34;53.58;102517.13;4978513;28;20065;-34
2023/09/24 06:13:35;;;;;;;3.78;2.42;;;;;;;20.35;53.51;102514.34;4985050;28;20051;-34
2023/09/24 06:16:02;;;;;;;3.88;2.72;;;;;;;20.35;53.79;102524.25;4979373;28;20461;-33
2023/09/24 06:18:29;;;;;;;4.95;3.28;;;;;;;20.35;53.62;102522.41;4979647;28;20165;-33
2023/09/24 06:21:02;;;;;;;4.72;2.80;;;;;;;20.35;53.19;102530.50;4979024;28;20046;-34
2023/09/24 06:23:29;;;;;;;6.07;3.20;;;;;;;20.34;53.86;102527.91;4978284;28;20046;-33
2023/09/24 06:25:56;;;;;;;5.50;3.28;;;;;;;20.34;53.16;102523.41;4977846;28;20354;-34
2023/09/24 06:28:24;;;;;;;5.78;3.33;;;;;;;20.33;53.39;102528.91;4984151;28;20053;-33
2023/09/24 06:31:01;;;;;;;4.38;3.15;;;;;;;20.32;53.77;102525.34;4980182;28;20046;-34
2023/09/24 06:33:28;;;;;;;5.50;3.50;;;;;;;20.35;53.21;102529.63;4976734;28;20047;-33
2023/09/24 06:35:56;;;;;;;6.03;3.70;;;;;;;20.33;53.35;102527.06;4980273;28;20439;-34
2023/09/24 06:38:22;;;;;;;7.72;3.80;;;;;;;20.33;53.52;102532.44;4982498;28;20058;-33
2023/09/24 06:41:03;;;;;;;7.22;3.97;;;;;;;20.32;52.93;102541.50;4980587;28;20053;-33
2023/09/24 06:43:30;;;;;;;5.85;4.20;;;;;;;20.33;53.27;102536.97;4979237;28;20055;-33
2023/09/24 06:45:57;;;;;;;6.68;4.18;;;;;;;20.33;53.59;102542.38;4989684;28;20100;-34
2023/09/24 06:48:25;;;;;;;7.53;4.22;;;;;;;20.32;53.67;102540.66;4984613;28;20053;-34
2023/09/24 06:50:53;;;;;;;6.15;4.13;;;;;;;20.32;53.06;102540.66;4983938;28;20173;-33
2023/09/24 06:53:21;;;;;;;7.32;4.30;;;;;;;20.32;53.70;102549.59;4978915;28;20058;-34
2023/09/24 06:55:48;;;;;;;6.18;3.88;;;;;;;20.33;53.68;102555.81;4982790;28;20104;-33
2023/09/24 06:58:15;;;;;;;6.85;4.25;;;;;;;20.32;52.97;102559.50;4982675;28;20046;-33
2023/09/24 07:00:41;;;;;;;8.27;4.38;;;;;;;20.33;53.16;102554.00;4983546;28;20149;-33
2023/09/24 07:03:08;;;;;;;7.90;4.35;;;;;;;20.32;52.91;102557.66;4986461;28;20047;-34
2023/09/24 07:05:36;;;;;;;8.50;4.88;;;;;;;20.33;53.36;102563.91;4985284;28;20134;-34
2023/09/24 07:08:04;;;;;;;9.27;5.63;;;;;;;20.33;53.51;102563.91;4989238;28;20339;-34
2023/09/24 07:10:30;;;;;;;11.07;4.95;;;;;;;20.34;53.16;102565.59;4986528;28;20061;-34
2023/09/24 07:12:57;;;;;;;10.30;5.63;;;;;;;20.33;53.05;102572.84;4982039;28;20108;-34
2023/09/24 07:15:23;;;;;;;8.35;5.80;;;;;;;20.34;53.02;102573.69;4981298;28;20120;-34
2023/09/24 07:17:50;;;;;;;8.38;5.70;;;;;;;20.34;52.98;102577.25;4992358;28;20551;-34
2023/09/24 07:20:18;;;;;;;9.38;6.07;;;;;;;20.35;53.14;102578.13;4992965;28;20045;-34
2023/09/24 07:22:44;;;;;;;10.05;5.85;;;;;;;20.35;53.04;102572.72;4987416;28;20055;-34
2023/09/24 07:25:11;;;;;;;9.52;6.45;;;;;;;20.35;52.80;102586.19;4982356;28;20057;-34
2023/09/24 07:27:37;;;;;;;10.88;6.88;;;;;;;20.35;53.23;102584.34;4984853;28;20054;-34
2023/09/24 07:30:05;;;;;;;11.15;6.65;;;;;;;20.36;53.49;102577.13;4981806;28;20394;-34
2023/09/24 07:32:33;;;;;;;12.52;7.30;;;;;;;20.37;53.30;102581.53;4982424;28;20047;-34
2023/09/24 07:35:00;;;;;;;12.40;6.88;;;;;;;20.36;52.93;102577.97;4986144;28;20046;-34
2023/09/24 07:37:26;;;;;;;11.98;7.88;;;;;;;20.37;53.04;102573.44;4984209;28;20042;-34
2023/09/24 07:39:53;;;;;;;12.45;7.80;;;;;;;20.37;52.61;102578.81;4990805;28;20054;-34
2023/09/24 07:42:20;;;;;;;12.73;7.45;;;;;;;20.38;52.59;102577.84;4991441;28;20050;-35
2023/09/24 07:44:47;;;;;;;10.52;7.22;;;;;;;20.38;52.64;102578.72;4987582;28;20045;-34
2023/09/24 07:47:14;;;;;;;12.82;7.40;;;;;;;20.38;52.69;102565.25;4984323;28;20057;-34
2023/09/24 07:49:43;;;;;;;12.65;7.88;;;;;;;20.39;52.70;102579.56;4987471;28;20190;-34
2023/09/24 07:52:09;;;;;;;14.85;8.52;;;;;;;20.39;53.15;102583.13;4997215;28;20108;-34
2023/09/24 07:54:37;;;;;;;12.00;7.43;;;;;;;20.40;52.56;102582.13;4993150;28;20585;-34
2023/09/24 07:57:04;;;;;;;14.48;8.70;;;;;;;20.41;53.21;102580.28;4983809;28;20054;-34
2023/09/24 07:59:31;;;;;;;14.82;8.40;;;;;;;20.42;53.04;102579.28;4984152;28;20054;-34
2023/09/24 08:02:01;;;;;;;14.00;8.18;;;;;;;20.44;52.74;102580.03;4980160;28;20047;-34
2023/09/24 08:04:28;;;;;;;13.32;7.82;;;;;;;20.45;52.78;102587.13;4978746;28;20078;-34
2023/09/24 08:06:55;;;;;;;18.70;11.38;;;;;;;20.47;52.46;102590.56;4967309;28;20050;-35
2023/09/24 08:09:21;;;;;;;25.95;15.07;;;;;;;20.48;52.64;102589.56;4981673;28;20350;-34
2023/09/24 08:11:52;;;;;;;29.40;16.92;;;;;;;20.49;52.86;102588.63;4979524;28;20143;-34
2023/09/24 08:14:19;;;;;;;34.58;18.73;;;;;;;20.51;53.10;102581.28;4981286;28;20054;-34
2023/09/24 08:16:46;;;;;;;39.00;22.48;;;;;;;20.52;52.89;102585.69;4990154;28;20042;-34
2023/09/24 08:19:12;;;;;;;44.33;23.67;;;;;;;20.53;53.00;102586.53;4986999;28;20971;-34
2023/09/24 08:21:39;;;;;;;50.38;26.52;;;;;;;20.55;53.04;102584.56;4971824;28;20049;-34
2023/09/24 08:24:06;;;;;;;53.15;28.73;;;;;;;20.57;52.80;102586.13;4990086;28;20473;-34
2023/09/24 08:26:33;;;;;;;51.03;28.17;;;;;;;20.58;52.40;102582.47;4979658;28;20077;-34
2023/09/24 08:29:02;;;;;;;51.58;28.23;;;;;;;20.61;52.95;102590.28;4986578;28;20060;-34
2023/09/24 08:31:31;;;;;;;50.58;29.33;;;;;;;20.64;52.91;102591.88;4993247;28;20442;-34
2023/09/24 08:33:58;;;;;;;53.58;30.05;;;;;;;20.66;52.74;102598.88;4989850;28;20054;-34
2023/09/24 08:36:24;;;;;;;50.47;28.95;;;;;;;20.68;52.80;102596.88;4987310;28;20070;-35
2023/09/24 08:38:51;;;;;;;56.05;30.92;;;;;;;20.70;52.51;102591.34;4991215;28;20050;-35
2023/09/24 08:41:18;;;;;;;47.65;27.50;;;;;;;20.72;52.90;102596.63;4972475;28;20294;-34
2023/09/24 08:43:45;;;;;;;52.50;28.92;;;;;;;20.74;52.27;102598.19;5012421;28;20046;-34
2023/09/24 08:46:12;;;;;;;49.33;28.10;;;;;;;20.76;52.16;102598.09;4990720;28;20058;-34
2023/09/24 08:48:39;;;;;;;46.80;27.23;;;;;;;20.78;52.23;102591.56;4993299;28;20108;-35
2023/09/24 08:51:09;;;;;;;46.20;25.75;;;;;;;20.80;52.18;102595.00;4989894;28;20552;-35
2023/09/24 08:53:37;;;;;;;46.42;23.65;;;;;;;20.82;52.25;102593.00;4993978;28;20053;-35
2023/09/24 08:56:04;;;;;;;37.53;21.77;;;;;;;20.84;52.38;102588.38;4988253;28;20046;-35
2023/09/24 08:58:31;;;;;;;39.42;18.85;;;;;;;20.86;51.85;102589.06;4989363;28;20597;-35
2023/09/24 09:01:00;;;;;;;33.30;18.63;;;;;;;20.91;51.81;102591.41;4964717;28;20052;-36
2023/09/24 09:03:32;;;;;;;41.22;22.38;;;;;;;20.94;52.57;102597.41;5015065;28;20054;-36
2023/09/24 09:05:59;;;;;;;38.58;20.65;;;;;;;20.99;52.46;102588.91;4988940;28;20046;-37
2023/09/24 09:08:25;;;;;;;37.50;19.35;;;;;;;21.04;52.32;102586.66;4985269;28;20053;-37
2023/09/24 09:10:52;;;;;;;42.17;21.73;;;;;;;21.08;52.34;102588.13;5018576;28;20054;-37
2023/09/24 09:13:18;;;;;;;45.13;19.95;;;;;;;21.14;52.57;102579.47;4981258;28;20046;-35
2023/09/24 09:15:50;;;;;;;40.42;21.35;;;;;;;21.22;52.13;102581.53;4991322;28;20061;-36
2023/09/24 09:18:26;;;;;;;42.42;21.20;;;;;;;21.29;52.46;102584.56;4980527;28;20372;-35
2023/09/24 09:21:00;;;;;;;42.95;21.80;;;;;;;21.36;52.39;102581.22;4946150;28;20566;-36
2023/09/24 09:23:38;;;;;;;;;;;;;;;21.45;52.63;102579.56;4991918;28;20417;-35
2023/09/24 09:26:06;;;;;;;38.15;19.17;;;;;;;21.56;52.38;102570.53;4981141;28;19974;-36
2023/09/24 09:28:36;;;;;;;38.90;19.70;;;;;;;21.65;52.26;102569.72;4982246;28;20058;-36
2023/09/24 09:31:07;;;;;;;49.05;21.23;;;;;;;21.75;52.12;102567.03;4983140;28;20061;-36
2023/09/24 09:33:38;;;;;;;37.92;19.88;;;;;;;21.85;52.16;102562.56;4981433;28;20051;-36
2023/09/24 09:36:21;;;;;;;40.20;20.00;;;;;;;21.98;51.56;102560.44;4983450;28;20060;-35
2023/09/24 09:38:48;;;;;;;41.65;19.70;;;;;;;22.10;51.71;102555.78;4981841;28;20058;-35
2023/09/24 09:41:17;;;;;;;40.00;18.05;;;;;;;22.22;51.18;102556.56;4947396;28;20353;-35
2023/09/24 09:43:47;;;;;;;36.60;17.17;;;;;;;22.33;51.04;102556.44;4996000;28;20140;-36
2023/09/24 09:46:21;;;;;;;31.58;17.25;;;;;;;22.43;50.44;102551.88;4981482;28;20297;-34
2023/09/24 09:48:57;;;;;;;28.50;15.32;;;;;;;22.55;50.36;102549.91;4983433;28;20464;-35
2023/09/24 09:51:25;;;;;;;34.00;15.30;;;;;;;22.64;50.32;102552.63;4976309;28;20090;-36
2023/09/24 09:54:04;;;;;;;28.58;15.32;;;;;;;22.74;49.61;102549.06;4981108;28;20051;-36
2023/09/24 09:56:31;;;;;;;25.83;13.65;;;;;;;22.81;49.57;102548.34;4977937;28;20053;-36
2023/09/24 09:58:58;;;;;;;23.33;13.18;;;;;;;22.89;49.27;102550.31;4985207;28;20136;-35
2023/09/24 10:01:25;;;;;;;26.55;14.30;;;;;;;22.92;49.19;102555.47;4947414;28;20137;-34
2023/09/24 10:03:53;;;;;;;24.20;12.15;;;;;;;22.98;48.39;102552.19;4992779;28;20061;-36
2023/09/24 10:06:22;;;;;;;26.08;13.32;;;;;;;23.01;48.50;102551.91;4973176;28;20112;-38
2023/09/24 10:08:49;;;;;;;28.38;13.18;;;;;;;23.04;47.98;102548.91;4983218;28;20053;-38
2023/09/24 10:11:31;;;;;;;24.33;13.90;;;;;;;23.07;47.49;102548.59;4979076;28;20086;-38
2023/09/24 10:13:59;;;;;;;22.17;11.73;;;;;;;23.13;48.03;102539.06;4980332;28;20382;-38
2023/09/24 10:16:27;;;;;;;21.98;11.43;;;;;;;23.19;47.95;102540.31;4977177;28;20417;-36
2023/09/24 10:19:02;;;;;;;22.33;11.35;;;;;;;23.22;47.69;102537.31;4983278;28;20054;-37
2023/09/24 10:21:49;;;;;;;17.90;9.90;;;;;;;23.25;46.76;102529.78;4959065;28;20365;-36
2023/09/24 10:24:28;;;;;;;24.85;11.77;;;;;;;23.29;47.13;102538.44;5000287;28;20547;-38
2023/09/24 10:27:06;;;;;;;22.52;12.77;;;;;;;23.32;47.42;102527.34;4978340;28;20070;-37
2023/09/24 10:29:59;;;;;;;19.05;9.80;;;;;;;23.31;46.87;102533.72;4972204;28;20141;-37
2023/09/24 10:32:26;;;;;;;19.50;9.93;;;;;;;23.34;46.60;102528.88;4982841;28;20046;-38
2023/09/24 10:34:53;;;;;;;16.55;8.43;;;;;;;23.35;46.62;102535.13;4972919;28;20648;-39
2023/09/24 10:37:22;;;;;;;18.42;9.63;;;;;;;23.34;46.38;102523.47;4971575;28;20439;-39
2023/09/24 10:39:58;;;;;;;15.30;7.93;;;;;;;23.33;45.65;102510.09;4980432;28;20488;-37
2023/09/24 10:42:29;;;;;;;15.15;8.65;;;;;;;23.33;46.54;102510.09;4954060;28;20061;-37
2023/09/24 10:45:08;;;;;;;12.65;6.55;;;;;;;23.30;45.68;102515.81;4993991;28;20082;-37
2023/09/24 10:47:46;;;;;;;17.70;7.90;;;;;;;23.30;45.72;102526.63;4970203;28;20048;-36
2023/09/24 10:50:18;;;;;;;18.70;8.70;;;;;;;23.30;46.74;102527.47;4980993;28;20054;-34
2023/09/24 10:52:59;;;;;;;16.27;8.98;;;;;;;23.27;46.63;102529.63;4983142;28;20697;-35
2023/09/24 10:55:29;;;;;;;19.73;9.75;;;;;;;23.30;46.91;102537.44;4976461;28;20050;-35
2023/09/24 10:58:01;;;;;;;13.77;7.93;;;;;;;23.27;47.25;102530.47;5004921;28;20397;-35
2023/09/24 11:00:30;;;;;;;17.98;8.40;;;;;;;23.26;47.27;102538.75;4979452;28;20061;-35
2023/09/24 11:03:08;;;;;;;14.00;6.95;;;;;;;23.21;46.57;102536.47;4961599;28;20286;-34
2023/09/24 11:05:43;;;;;;;10.68;5.97;;;;;;;23.20;46.45;102528.53;4984874;28;20061;-34
2023/09/24 11:08:14;;;;;;;12.48;6.15;;;;;;;23.14;46.25;102530.78;4986961;28;20451;-34
2023/09/24 11:10:41;;;;;;;11.02;5.97;;;;;;;23.11;46.65;102528.38;4985602;28;20062;-34
2023/09/24 11:13:08;;;;;;;11.70;6.32;;;;;;;23.07;45.83;102526.09;4981624;28;20402;-34
2023/09/24 11:15:39;;;;;;;10.63;5.45;;;;;;;23.03;45.83;102519.28;4978934;28;20123;-35
2023/09/24 11:18:06;;;;;;;9.48;4.30;;;;;;;23.00;45.55;102536.69;4983305;28;20042;-34
2023/09/24 11:20:35;;;;;;;9.40;4.88;;;;;;;22.97;45.15;102525.28;4979701;28;20133;-34
2023/09/24 11:23:05;;;;;;;11.77;5.90;;;;;;;22.95;45.83;102527.28;4982479;28;20175;-33
2023/09/24 11:25:32;;;;;;;15.10;7.03;;;;;;;22.94;46.09;102529.13;4985083;28;20350;-34
2023/09/24 11:28:01;;;;;;;14.93;8.18;;;;;;;22.92;46.38;102525.75;4977997;28;20141;-33